Time;durP1;ratioP1;P1;durP2;ratioP2;P2;SDS_P1;SDS_P2;PMS_P1;PMS_P2;Temp;Humidity;BMP_temperature;BMP_pressure;BME280_temperature;BME280_humidity;BME280_pressure;Samples;Min_cycle;Max_cycle;Signal;HPM_P1;HPM_P2
2023/05/27 00:01:13;;;;;;;11.10;3.80;;;;;;;8.58;76.54;101618.30;218476;1288;140575;-85
2023/05/27 00:06:13;;;;;;;20.90;5.80;;;;;;;8.50;77.37;101612.52;219169;1288;138551;-84
2023/05/27 00:11:13;;;;;;;19.10;5.50;;;;;;;8.42;77.26;101619.80;218678;1288;140228;-86
2023/05/27 00:16:16;;;;;;;16.80;5.10;;;;;;;8.35;78.01;101611.15;219037;1287;138975;-86
2023/05/27 00:21:16;;;;;;;13.70;4.60;;;;;;;8.27;78.71;101610.83;218387;1288;142607;-86
2023/05/27 00:26:17;;;;;;;18.90;4.40;;;;;;;8.20;78.96;101615.94;218861;1288;137712;-86
2023/05/27 00:31:17;;;;;;;13.70;5.00;;;;;;;8.16;78.91;101622.57;218501;1288;141751;-86
2023/05/27 00:36:18;;;;;;;16.10;4.30;;;;;;;8.11;79.01;101622.08;218918;1288;139078;-86
2023/05/27 00:41:19;;;;;;;14.90;5.00;;;;;;;8.05;79.32;101619.23;218390;1288;141703;-85
2023/05/27 00:46:20;;;;;;;18.90;6.50;;;;;;;7.98;80.14;101618.89;218935;1288;138825;-86
2023/05/27 00:51:21;;;;;;;15.50;4.90;;;;;;;7.93;79.88;101622.81;218396;1288;141492;-86
2023/05/27 00:56:21;;;;;;;14.00;4.40;;;;;;;7.87;80.10;101624.75;218959;1288;138858;-86
2023/05/27 01:01:25;;;;;;;15.40;5.50;;;;;;;7.81;79.82;101624.90;218529;1287;141596;-86
2023/05/27 01:06:28;;;;;;;18.50;4.50;;;;;;;7.74;80.96;101625.81;218921;1288;138669;-86
2023/05/27 01:11:34;;;;;;;15.20;4.50;;;;;;;7.65;81.48;101630.91;218567;1288;141020;-85
2023/05/27 01:16:43;;;;;;;12.90;3.80;;;;;;;7.58;81.40;101629.67;218868;1287;139925;-85
2023/05/27 01:21:50;;;;;;;12.20;3.70;;;;;;;7.51;81.46;101632.66;218270;1288;142058;-85
2023/05/27 01:26:50;;;;;;;;;;;;;;;7.47;81.69;101629.10;218874;1287;138905;-85
2023/05/27 01:32:27;;;;;;;19.20;5.00;;;;;;;7.42;82.45;101632.56;218470;1287;128698;-85
2023/05/27 01:37:33;;;;;;;12.90;4.80;;;;;;;7.36;82.70;101635.05;219024;1288;105810;-86
2023/05/27 01:42:39;;;;;;;14.50;4.40;;;;;;;7.30;83.88;101629.58;218659;1288;140595;-86
2023/05/27 01:47:40;;;;;;;15.20;4.50;;;;;;;7.23;84.22;101624.06;218811;1288;139132;-85
2023/05/27 01:52:40;;;;;;;13.80;4.80;;;;;;;7.17;84.54;101630.63;218423;1288;140402;-85
2023/05/27 01:57:41;;;;;;;15.90;5.20;;;;;;;7.11;85.21;101619.99;218885;1287;138823;-85
2023/05/27 02:02:41;;;;;;;16.30;5.00;;;;;;;7.06;85.68;101618.14;218415;1288;141428;-85
2023/05/27 02:07:42;;;;;;;16.30;4.50;;;;;;;6.99;86.01;101619.34;219111;1287;95726;-85
2023/05/27 02:12:42;;;;;;;17.40;4.80;;;;;;;6.94;86.41;101620.36;218482;1287;141244;-85
2023/05/27 02:17:45;;;;;;;21.40;5.70;;;;;;;6.88;87.00;101619.17;218923;1287;138541;-85
2023/05/27 02:22:46;;;;;;;19.60;5.90;;;;;;;6.84;87.61;101619.20;218342;1287;140435;-85
2023/05/27 02:27:51;;;;;;;17.10;4.80;;;;;;;6.80;87.91;101616.98;218962;1287;139409;-84
2023/05/27 02:32:52;;;;;;;18.60;6.70;;;;;;;6.80;87.70;101617.15;218570;1287;141527;-84
2023/05/27 02:37:52;;;;;;;19.70;6.00;;;;;;;6.80;89.35;101616.98;218826;1288;139249;-84
2023/05/27 02:42:52;;;;;;;18.20;5.50;;;;;;;6.78;88.49;101620.44;218550;1287;286919;-84
2023/05/27 02:47:55;;;;;;;16.70;6.20;;;;;;;6.79;89.24;101624.23;219140;1287;138722;-85
2023/05/27 02:52:55;;;;;;;12.80;5.00;;;;;;;6.74;90.23;101629.60;218632;1288;142218;-85
2023/05/27 02:57:56;;;;;;;11.60;5.00;;;;;;;6.73;89.64;101634.91;218695;1288;138905;-84
2023/05/27 03:02:56;;;;;;;20.50;6.30;;;;;;;6.75;89.04;101628.89;218409;1288;142238;-84
2023/05/27 03:07:57;;;;;;;22.10;6.60;;;;;;;6.77;89.53;101628.99;218918;1288;139060;-85
2023/05/27 03:12:58;;;;;;;20.30;6.30;;;;;;;6.79;89.61;101638.46;218455;1288;140288;-85
2023/05/27 03:17:58;;;;;;;16.50;5.10;;;;;;;6.80;89.82;101647.13;219016;1288;138620;-84
2023/05/27 03:22:58;;;;;;;16.80;5.60;;;;;;;6.84;89.88;101647.11;218447;1288;140722;-85
2023/05/27 03:27:59;;;;;;;20.20;6.00;;;;;;;6.86;89.76;101640.09;218819;1288;138752;-85
2023/05/27 03:33:00;;;;;;;18.20;5.90;;;;;;;6.89;89.99;101643.05;218265;1289;140757;-85
2023/05/27 03:38:00;;;;;;;17.00;6.20;;;;;;;6.91;89.48;101648.73;218864;1288;138845;-85
2023/05/27 03:43:00;;;;;;;17.40;5.80;;;;;;;6.95;89.68;101650.66;218329;1288;140543;-85
2023/05/27 03:48:01;;;;;;;14.60;5.40;;;;;;;6.99;90.25;101650.45;218902;1288;140239;-84
2023/05/27 03:53:01;;;;;;;20.30;6.70;;;;;;;7.04;90.67;101664.67;218457;1288;139866;-85
2023/05/27 03:58:01;;;;;;;17.30;5.80;;;;;;;7.09;91.09;101664.73;218902;1288;137705;-84
2023/05/27 04:03:02;;;;;;;17.80;6.00;;;;;;;7.16;91.12;101671.30;218321;1288;140162;-84
2023/05/27 04:08:03;;;;;;;19.90;6.30;;;;;;;7.23;91.79;101678.61;218936;1288;138713;-84
2023/05/27 04:13:04;;;;;;;19.40;6.60;;;;;;;7.31;92.18;101685.69;218332;1288;140175;-84
2023/05/27 04:18:04;;;;;;;17.10;6.70;;;;;;;7.41;93.05;101688.70;218945;1288;138726;-84
2023/05/27 04:23:05;;;;;;;20.40;7.40;;;;;;;7.51;92.95;101690.98;218314;1290;142578;-84
2023/05/27 04:28:06;;;;;;;29.00;7.20;;;;;;;7.62;93.41;101690.48;218850;1288;139249;-85
2023/05/27 04:33:07;;;;;;;21.30;6.80;;;;;;;7.72;93.63;101685.63;218265;1288;141614;-84
2023/05/27 04:38:07;;;;;;;19.40;8.70;;;;;;;7.84;93.29;101693.96;218872;1288;139428;-85
2023/05/27 04:43:08;;;;;;;18.80;6.40;;;;;;;7.97;93.66;101698.95;218539;1288;140625;-86
2023/05/27 04:48:09;;;;;;;19.70;7.30;;;;;;;8.10;93.79;101699.34;218852;1288;139167;-86
2023/05/27 04:53:10;;;;;;;22.00;8.50;;;;;;;8.24;93.65;101699.34;218311;1288;140263;-86
2023/05/27 04:58:10;;;;;;;18.90;6.90;;;;;;;8.39;93.68;101694.54;218702;1288;138752;-84
2023/05/27 05:03:20;;;;;;;18.10;5.80;;;;;;;8.58;94.26;101697.42;218282;1288;141672;-84
2023/05/27 05:08:21;;;;;;;18.80;5.60;;;;;;;8.83;94.94;101699.70;218900;1288;139089;-84
2023/05/27 05:13:21;;;;;;;15.80;5.30;;;;;;;9.09;94.83;101698.98;218517;1288;140177;-85
2023/05/27 05:18:22;;;;;;;15.60;6.00;;;;;;;9.39;94.56;101700.87;218852;1288;138658;-85
2023/05/27 05:23:22;;;;;;;16.40;5.90;;;;;;;9.76;94.67;101695.10;218279;1288;140418;-86
2023/05/27 05:28:23;;;;;;;18.50;5.70;;;;;;;10.21;94.51;101696.67;218848;1288;138654;-85
2023/05/27 05:33:23;;;;;;;18.40;5.10;;;;;;;10.76;93.22;101690.89;218310;1288;140351;-87
2023/05/27 05:38:24;;;;;;;16.00;5.60;;;;;;;11.46;93.57;101689.52;218930;1288;139026;-86
2023/05/27 05:43:25;;;;;;;26.80;6.80;;;;;;;12.21;90.80;101693.35;218306;1288;141481;-86
2023/05/27 05:48:26;;;;;;;14.80;4.70;;;;;;;13.05;90.72;101698.45;218714;1288;139091;-88
2023/05/27 05:53:26;;;;;;;17.20;4.40;;;;;;;13.98;86.51;101701.00;218303;1288;142369;-87
2023/05/27 05:58:27;;;;;;;16.80;3.70;;;;;;;14.87;85.00;101700.92;218734;1288;139180;-91
2023/05/27 06:03:27;;;;;;;18.90;4.20;;;;;;;15.70;80.26;101702.70;218092;1288;140987;-88
2023/05/27 06:08:28;;;;;;;19.90;4.60;;;;;;;16.42;78.04;101704.25;218879;1288;139079;-87
2023/05/27 06:13:29;;;;;;;15.80;3.90;;;;;;;17.24;75.64;101702.70;218448;1288;140841;-89
2023/05/27 06:18:29;;;;;;;16.50;4.50;;;;;;;17.86;71.22;101713.01;218710;1288;139368;-92
2023/05/27 06:23:30;;;;;;;15.90;4.40;;;;;;;18.32;67.18;101718.64;218343;1288;142985;-88
2023/05/27 06:28:30;;;;;;;14.50;4.10;;;;;;;18.79;65.52;101723.24;218840;1288;138835;-89
2023/05/27 06:33:31;;;;;;;12.40;3.40;;;;;;;19.11;62.93;101723.95;218164;1288;140421;-89
2023/05/27 06:38:31;;;;;;;11.80;3.80;;;;;;;19.40;60.42;101720.29;218923;1288;138660;-93
2023/05/27 06:43:32;;;;;;;12.20;3.60;;;;;;;19.70;59.27;101720.20;218500;1288;140025;-88
2023/05/27 06:48:32;;;;;;;11.20;3.90;;;;;;;19.98;56.29;101723.88;218945;1288;138526;-84
2023/05/27 06:53:32;;;;;;;11.30;4.20;;;;;;;19.93;56.29;101727.50;218316;1288;141824;-86
2023/05/27 06:58:33;;;;;;;10.40;3.20;;;;;;;20.41;54.79;101725.80;218834;1288;138813;-84
2023/05/27 07:03:33;;;;;;;11.00;4.10;;;;;;;20.46;52.61;101724.95;218280;1289;140186;-88
2023/05/27 07:08:33;;;;;;;11.80;3.60;;;;;;;20.64;53.17;101726.40;218876;1288;138527;-88
2023/05/27 07:13:34;;;;;;;12.00;3.50;;;;;;;20.88;52.40;101718.02;218688;1288;141458;-88
2023/05/27 07:18:34;;;;;;;13.90;4.20;;;;;;;21.35;51.27;101714.28;218806;1288;139089;-87
2023/05/27 07:23:35;;;;;;;12.00;3.50;;;;;;;21.44;50.09;101713.84;218166;1289;140351;-87
2023/05/27 07:28:37;;;;;;;10.40;3.80;;;;;;;21.71;49.79;101709.89;218891;1288;138597;-86
2023/05/27 07:33:37;;;;;;;11.10;3.20;;;;;;;21.96;49.50;101700.95;218453;1288;141311;-89
2023/05/27 07:38:38;;;;;;;10.50;3.70;;;;;;;22.36;48.95;101704.06;218904;1288;138481;-88
2023/05/27 07:43:40;;;;;;;11.30;3.00;;;;;;;22.69;47.94;101705.60;218661;1288;139587;-94
2023/05/27 07:48:41;;;;;;;8.80;2.70;;;;;;;22.51;45.41;101700.68;218772;1288;138641;-92
2023/05/27 07:53:41;;;;;;;13.70;2.40;;;;;;;22.21;43.59;101705.04;218329;1288;139701;-88
2023/05/27 07:58:42;;;;;;;6.10;1.40;;;;;;;22.01;44.35;101697.27;218970;1288;137721;-96
2023/05/27 08:03:46;;;;;;;5.60;1.70;;;;;;;22.27;43.51;101695.23;218499;1288;139976;-94
2023/05/27 08:08:47;;;;;;;8.30;2.30;;;;;;;22.93;43.55;101690.86;218456;1288;140329;-94
2023/05/27 08:13:48;;;;;;;5.60;1.90;;;;;;;23.44;43.19;101680.33;218864;1288;138136;-86
2023/05/27 08:18:49;;;;;;;8.20;2.30;;;;;;;24.06;42.67;101673.39;218582;1288;140375;-91
2023/05/27 08:23:50;;;;;;;4.70;1.60;;;;;;;24.41;39.47;101669.20;218883;1290;138254;-86
2023/05/27 08:28:50;;;;;;;7.10;2.10;;;;;;;24.68;38.95;101669.95;218401;1288;140148;-87
2023/05/27 08:33:51;;;;;;;6.00;1.60;;;;;;;24.66;36.77;101666.91;219005;1288;138151;-84
2023/05/27 08:38:51;;;;;;;6.30;1.70;;;;;;;25.15;40.10;101655.08;218303;1288;140323;-88
2023/05/27 08:43:52;;;;;;;6.00;2.00;;;;;;;26.27;38.67;101647.41;218694;1288;138241;-84
2023/05/27 08:48:55;;;;;;;7.80;2.00;;;;;;;26.92;36.72;101647.14;218605;1288;140869;-88
2023/05/27 08:54:01;;;;;;;7.40;1.60;;;;;;;26.88;35.59;101651.33;218746;1288;138494;-90
2023/05/27 08:59:04;;;;;;;5.90;1.70;;;;;;;27.08;35.15;101650.00;218117;1288;141528;-91
2023/05/27 09:04:05;;;;;;;6.50;1.80;;;;;;;27.53;34.09;101650.85;218871;1288;138137;-87
2023/05/27 09:09:08;;;;;;;6.70;1.80;;;;;;;27.48;32.22;101652.36;218441;1288;140459;-85
2023/05/27 09:14:08;;;;;;;7.30;2.00;;;;;;;27.84;32.36;101649.30;218832;1288;138338;-82
2023/05/27 09:19:16;;;;;;;5.80;1.90;;;;;;;28.32;33.04;101643.00;218628;1289;143882;-82
2023/05/27 09:24:16;;;;;;;5.60;1.60;;;;;;;28.65;30.85;101643.89;218849;1288;138490;-82
2023/05/27 09:29:19;;;;;;;5.90;1.40;;;;;;;28.91;31.93;101640.14;218489;1288;142439;-82
2023/05/27 09:34:19;;;;;;;5.10;1.70;;;;;;;29.65;31.45;101640.00;219005;1288;139166;-84
2023/05/27 09:39:22;;;;;;;4.80;1.60;;;;;;;30.00;31.63;101632.63;218484;1288;140362;-82
2023/05/27 09:44:40;;;;;;;5.60;1.90;;;;;;;30.49;28.39;101638.11;218927;1288;138237;-89
2023/05/27 09:49:42;;;;;;;5.80;1.70;;;;;;;29.46;27.43;101639.86;218374;1288;142356;-84
2023/05/27 09:54:43;;;;;;;4.70;2.10;;;;;;;29.43;27.86;101635.86;219014;1288;138615;-83
2023/05/27 09:59:46;;;;;;;9.20;2.00;;;;;;;29.50;28.85;101630.48;218512;1287;142529;-86
2023/05/27 10:04:49;;;;;;;5.90;1.90;;;;;;;30.32;29.78;101626.39;219135;1287;139118;-83
2023/05/27 10:09:50;;;;;;;5.60;1.90;;;;;;;30.81;27.37;101630.78;218396;1288;139894;-85
2023/05/27 10:14:51;;;;;;;4.10;1.50;;;;;;;30.05;26.57;101630.59;219205;1287;138256;-86
2023/05/27 10:19:56;;;;;;;5.00;1.90;;;;;;;29.83;27.11;101625.48;218615;1287;141354;-82
2023/05/27 10:25:10;;;;;;;3.40;1.20;;;;;;;30.42;27.53;101624.84;218967;1287;95749;-83
2023/05/27 10:30:14;;;;;;;4.50;1.70;;;;;;;30.86;28.50;101625.29;218582;1287;140263;-81
2023/05/27 10:35:16;;;;;;;7.20;1.90;;;;;;;31.60;28.36;101624.09;219162;1287;138137;-81
2023/05/27 10:40:24;;;;;;;4.70;1.50;;;;;;;32.16;27.14;101620.98;218404;1287;140190;-83
2023/05/27 10:45:33;;;;;;;5.10;1.90;;;;;;;32.20;26.21;101615.91;219154;1287;138351;-84
2023/05/27 10:50:34;;;;;;;5.70;2.50;;;;;;;31.60;25.44;101613.20;218624;1287;141923;-81
2023/05/27 10:55:36;;;;;;;4.50;1.80;;;;;;;31.20;25.85;101611.83;219242;1287;95650;-82
2023/05/27 11:00:38;;;;;;;6.30;1.90;;;;;;;30.94;24.27;101610.25;218519;1287;140929;-82
2023/05/27 11:05:38;;;;;;;6.00;2.00;;;;;;;30.55;25.93;101602.96;219086;1287;138820;-85
2023/05/27 11:10:42;;;;;;;6.20;1.60;;;;;;;30.46;25.02;101593.74;218650;1287;142985;-84
2023/05/27 11:15:42;;;;;;;6.90;1.90;;;;;;;30.65;26.57;101594.53;218947;1287;138135;-83
2023/05/27 11:20:42;;;;;;;5.80;1.80;;;;;;;31.13;25.91;101584.68;218612;1288;142279;-85
2023/05/27 11:25:44;;;;;;;5.70;2.30;;;;;;;30.78;25.05;101585.46;219202;1287;96132;-84
2023/05/27 11:30:44;;;;;;;4.50;1.50;;;;;;;30.60;27.15;101573.86;218454;1287;140210;-84
2023/05/27 11:35:45;;;;;;;3.60;1.50;;;;;;;31.18;25.97;101580.96;219021;1287;138575;-84
2023/05/27 11:40:45;;;;;;;6.10;1.80;;;;;;;31.36;25.47;101577.77;218655;1287;140645;-83
2023/05/27 11:45:46;;;;;;;6.50;1.90;;;;;;;31.30;24.01;101574.80;219120;1287;138504;-82
2023/05/27 11:50:47;;;;;;;5.40;1.70;;;;;;;30.09;24.27;101566.45;218594;1287;140877;-86
2023/05/27 11:55:47;;;;;;;4.40;1.60;;;;;;;30.24;25.57;101558.79;218969;1287;138585;-88
2023/05/27 12:00:47;;;;;;;5.90;1.80;;;;;;;30.64;25.19;101557.35;218547;1287;142815;-84
2023/05/27 12:05:48;;;;;;;4.90;2.10;;;;;;;30.39;24.71;101559.95;219234;1287;139358;-85
2023/05/27 12:10:53;;;;;;;7.30;1.70;;;;;;;29.79;24.31;101551.48;218631;1288;141276;-89
2023/05/27 12:15:54;;;;;;;5.40;1.80;;;;;;;29.68;25.69;101540.59;218820;1287;138337;-86
2023/05/27 12:20:54;;;;;;;6.50;1.90;;;;;;;30.15;26.87;101536.53;218400;1287;139959;-83
2023/05/27 12:25:55;;;;;;;5.60;1.90;;;;;;;30.08;25.35;101526.15;218966;1287;138615;-83
2023/05/27 12:30:55;;;;;;;6.00;2.10;;;;;;;29.81;26.11;101523.30;218756;1287;140111;-84
2023/05/27 12:35:56;;;;;;;5.40;1.90;;;;;;;28.89;24.92;101524.06;219189;1287;139993;-84
2023/05/27 12:40:57;;;;;;;3.40;1.60;;;;;;;28.63;27.20;101521.73;218534;1287;140072;-83
2023/05/27 12:45:59;;;;;;;6.20;1.80;;;;;;;29.09;27.32;101511.73;219156;1288;138388;-83
2023/05/27 12:51:00;;;;;;;5.60;1.60;;;;;;;29.65;27.97;101507.00;218597;1288;140811;-82
2023/05/27 12:56:00;;;;;;;5.10;2.00;;;;;;;29.46;24.99;101501.06;219154;1288;138408;-85
2023/05/27 13:01:01;;;;;;;6.50;1.70;;;;;;;29.05;26.22;101502.88;218801;1288;140420;-85
2023/05/27 13:06:01;;;;;;;7.20;2.00;;;;;;;29.06;26.54;101487.84;219191;1287;138492;-84
2023/05/27 13:11:04;;;;;;;5.30;1.60;;;;;;;29.02;26.54;101486.34;218251;1288;140495;-89
2023/05/27 13:16:05;;;;;;;6.10;2.00;;;;;;;28.72;26.56;101486.85;219081;1287;140016;-88
2023/05/27 13:21:06;;;;;;;4.90;1.80;;;;;;;28.81;27.22;101473.79;218356;1287;140524;-86
2023/05/27 13:26:06;;;;;;;6.00;2.10;;;;;;;28.69;26.52;101475.27;219081;1288;138245;-86
2023/05/27 13:31:07;;;;;;;8.90;2.10;;;;;;;28.39;26.99;101473.12;218538;1288;142449;-89
2023/05/27 13:36:08;;;;;;;5.10;2.00;;;;;;;28.45;26.64;101467.80;218901;1287;138245;-81
2023/05/27 13:41:08;;;;;;;5.90;1.90;;;;;;;28.09;25.34;101467.07;218673;1287;139923;-87
2023/05/27 13:46:08;;;;;;;4.50;1.80;;;;;;;27.44;26.09;101462.23;219127;1288;139215;-85
2023/05/27 13:51:09;;;;;;;6.00;1.70;;;;;;;26.94;25.76;101465.73;218706;1288;140465;-89
2023/05/27 13:56:09;;;;;;;5.90;1.60;;;;;;;26.58;26.67;101454.67;218822;1288;138194;-86
2023/05/27 14:01:10;;;;;;;5.20;1.60;;;;;;;26.37;26.26;101445.73;218668;1288;141754;-89
2023/05/27 14:06:10;;;;;;;7.80;2.00;;;;;;;26.29;26.22;101443.39;218967;1288;138650;-87
2023/05/27 14:11:12;;;;;;;8.00;1.70;;;;;;;25.76;26.03;101440.33;218448;1287;140776;-87
2023/05/27 14:16:12;;;;;;;7.00;1.90;;;;;;;25.53;29.02;101431.46;218916;1288;138355;-85
2023/05/27 14:21:14;;;;;;;3.10;1.60;;;;;;;25.94;29.93;101427.42;218430;1288;141362;-88
2023/05/27 14:26:15;;;;;;;4.60;1.60;;;;;;;26.34;28.17;101426.56;218911;1288;138700;-85
2023/05/27 14:31:15;;;;;;;2.50;1.30;;;;;;;26.11;27.32;101426.80;218536;1288;140241;-83
2023/05/27 14:36:16;;;;;;;3.00;1.40;;;;;;;25.82;26.52;101425.53;219142;1288;138211;-86
2023/05/27 14:41:16;;;;;;;5.50;2.00;;;;;;;25.50;27.35;101411.41;218208;1288;199004;-88
2023/05/27 14:46:17;;;;;;;5.40;1.60;;;;;;;25.50;27.02;101412.33;218925;1288;139372;-87
2023/05/27 14:51:17;;;;;;;3.80;1.70;;;;;;;25.29;27.90;101401.62;218602;1289;141015;-84
2023/05/27 14:56:17;;;;;;;5.50;1.50;;;;;;;24.93;26.28;101400.05;218973;1290;138344;-83
2023/05/27 15:01:18;;;;;;;4.50;1.40;;;;;;;24.42;27.35;101394.16;218774;1288;140928;-82
2023/05/27 15:06:18;;;;;;;3.80;1.70;;;;;;;24.37;28.98;101392.80;219081;1288;138359;-86
2023/05/27 15:11:19;;;;;;;3.10;1.10;;;;;;;24.25;26.26;101391.69;218625;1288;140023;-84
2023/05/27 15:16:19;;;;;;;6.40;2.00;;;;;;;23.96;26.51;101389.58;218909;1288;138469;-86
2023/05/27 15:21:20;;;;;;;6.30;1.70;;;;;;;23.76;26.79;101388.12;218593;1288;140167;-84
2023/05/27 15:26:21;;;;;;;2.90;1.30;;;;;;;23.60;27.90;101385.66;219162;1287;138211;-86
2023/05/27 15:31:22;;;;;;;8.40;1.50;;;;;;;23.42;27.71;101377.80;218555;1288;144936;-81
2023/05/27 15:36:23;;;;;;;3.50;1.70;;;;;;;23.28;27.94;101377.63;219178;1288;139195;-85
2023/05/27 15:41:23;;;;;;;4.20;1.60;;;;;;;23.01;27.61;101375.63;218329;1289;140550;-86
2023/05/27 15:46:24;;;;;;;4.00;1.30;;;;;;;22.96;29.16;101369.88;219111;1288;138510;-86
2023/05/27 15:51:24;;;;;;;3.90;1.50;;;;;;;22.82;28.61;101364.05;218607;1288;141369;-85
2023/05/27 15:56:25;;;;;;;5.60;1.50;;;;;;;22.57;29.14;101359.80;219031;1288;138392;-83
2023/05/27 16:01:25;;;;;;;4.20;1.60;;;;;;;22.44;30.44;101360.55;218745;1287;140582;-84
2023/05/27 16:06:26;;;;;;;3.60;1.50;;;;;;;22.41;31.48;101352.51;219153;1288;138223;-81
2023/05/27 16:11:27;;;;;;;5.30;1.60;;;;;;;22.07;30.43;101351.34;218470;1288;141065;-84
2023/05/27 16:16:27;;;;;;;5.80;1.40;;;;;;;21.81;30.26;101344.83;219173;1288;138831;-85
2023/05/27 16:21:28;;;;;;;4.90;1.70;;;;;;;21.63;29.92;101340.92;218623;1288;139866;-84
2023/05/27 16:26:28;;;;;;;6.20;1.40;;;;;;;21.39;29.96;101330.98;219143;1288;139694;-81
2023/05/27 16:31:28;;;;;;;4.20;1.30;;;;;;;21.16;30.07;101328.67;218714;1287;140959;-82
2023/05/27 16:36:29;;;;;;;4.80;1.70;;;;;;;20.89;31.10;101322.03;218977;1288;139780;-83
2023/05/27 16:41:30;;;;;;;5.80;1.80;;;;;;;20.75;31.17;101322.41;218401;1289;140841;-82
2023/05/27 16:46:31;;;;;;;3.30;1.40;;;;;;;20.52;31.17;101327.17;219135;1289;139293;-84
2023/05/27 16:51:31;;;;;;;5.00;1.60;;;;;;;20.38;31.92;101322.11;218655;1288;140791;-83
2023/05/27 16:56:31;;;;;;;9.60;1.80;;;;;;;20.19;31.80;101317.77;219168;1288;138394;-84
2023/05/27 17:01:32;;;;;;;5.10;1.60;;;;;;;20.00;32.07;101315.91;218459;1289;139857;-82
2023/05/27 17:06:33;;;;;;;3.80;1.50;;;;;;;19.84;32.45;101317.00;219162;1287;138222;-85
2023/05/27 17:11:34;;;;;;;4.30;1.60;;;;;;;19.62;32.07;101311.36;218452;1288;140717;-83
2023/05/27 17:16:35;;;;;;;2.70;1.30;;;;;;;19.44;32.95;101313.55;218969;1289;138606;-82
2023/05/27 17:21:37;;;;;;;5.90;1.40;;;;;;;19.30;32.90;101312.27;218713;1287;143879;-82
2023/05/27 17:26:37;;;;;;;3.00;1.20;;;;;;;19.15;33.06;101308.58;219129;1290;139274;-83
2023/05/27 17:31:38;;;;;;;4.80;1.50;;;;;;;19.05;33.18;101306.36;218771;1288;140652;-82
2023/05/27 17:36:39;;;;;;;4.70;1.70;;;;;;;18.92;33.75;101302.41;219159;1288;138000;-81
2023/05/27 17:41:39;;;;;;;4.40;1.90;;;;;;;18.79;33.75;101306.36;218635;1288;140300;-81
2023/05/27 17:46:40;;;;;;;8.40;2.10;;;;;;;18.65;34.33;101305.59;219123;1288;138282;-82
2023/05/27 17:51:40;;;;;;;8.80;1.80;;;;;;;18.55;34.20;101304.95;218456;1289;141707;-82
2023/05/27 17:56:41;;;;;;;7.60;1.90;;;;;;;18.44;34.50;101307.18;219076;1288;138534;-82
2023/05/27 18:01:41;;;;;;;5.20;2.10;;;;;;;18.31;35.23;101302.88;218602;1288;142091;-82
2023/05/27 18:06:42;;;;;;;4.50;2.00;;;;;;;18.17;36.08;101299.05;218899;1288;138639;-81
2023/05/27 18:11:43;;;;;;;4.30;1.70;;;;;;;18.08;36.74;101295.29;218613;1287;140719;-81
2023/05/27 18:16:43;;;;;;;4.50;2.10;;;;;;;17.95;37.02;101299.89;219140;1287;139012;-82
2023/05/27 18:21:44;;;;;;;4.80;1.70;;;;;;;17.78;37.58;101296.71;218589;1288;142644;-82
2023/05/27 18:26:44;;;;;;;5.60;2.20;;;;;;;17.62;38.01;101295.65;219177;1287;138413;-82
2023/05/27 18:31:45;;;;;;;7.00;2.20;;;;;;;17.46;38.84;101299.30;218797;1288;140921;-82
2023/05/27 18:36:45;;;;;;;6.90;2.10;;;;;;;17.29;39.78;101292.79;218941;1287;138586;-82
2023/05/27 18:41:45;;;;;;;6.00;2.30;;;;;;;17.09;40.43;101291.80;218636;1288;140535;-82
2023/05/27 18:46:46;;;;;;;6.20;2.40;;;;;;;16.91;41.24;101292.08;219147;1287;138475;-81
2023/05/27 18:51:46;;;;;;;5.10;2.10;;;;;;;16.71;41.98;101297.80;218678;1287;140890;-81
2023/05/27 18:56:47;;;;;;;6.50;1.90;;;;;;;16.46;43.17;101300.56;219202;1287;138354;-81
2023/05/27 19:01:47;;;;;;;7.40;2.10;;;;;;;16.22;43.49;101295.49;218758;1287;141156;-81
2023/05/27 19:06:48;;;;;;;6.40;2.20;;;;;;;15.99;44.44;101304.80;219183;1287;138102;-81
2023/05/27 19:11:48;;;;;;;5.40;2.20;;;;;;;15.79;44.91;101308.70;218632;1287;140230;-81
2023/05/27 19:16:49;;;;;;;10.70;2.70;;;;;;;15.56;45.75;101306.37;219229;1287;140336;-82
2023/05/27 19:21:49;;;;;;;4.90;1.90;;;;;;;15.32;45.97;101303.92;218685;1287;141577;-83
2023/05/27 19:26:49;;;;;;;7.30;2.20;;;;;;;15.11;45.89;101303.54;219208;1287;139304;-82
2023/05/27 19:31:50;;;;;;;7.30;2.50;;;;;;;14.89;46.32;101303.46;218638;1287;140323;-84
2023/05/27 19:36:50;;;;;;;7.60;2.70;;;;;;;14.68;46.55;101312.72;219207;1287;95690;-81
2023/05/27 19:41:52;;;;;;;5.20;1.90;;;;;;;14.49;46.73;101307.89;218629;1287;139792;-80
2023/05/27 19:46:53;;;;;;;7.00;2.10;;;;;;;14.33;46.56;101305.60;219193;1287;138274;-81
2023/05/27 19:51:54;;;;;;;6.90;2.80;;;;;;;14.22;45.81;101299.24;218413;1287;141826;-81
2023/05/27 19:56:54;;;;;;;5.60;2.00;;;;;;;14.13;45.08;101301.42;219209;1287;138307;-81
2023/05/27 20:01:54;;;;;;;6.60;2.00;;;;;;;14.04;44.53;101301.70;218640;1287;140520;-81
2023/05/27 20:06:55;;;;;;;5.50;2.00;;;;;;;13.96;44.14;101305.73;219280;1287;95704;-81
2023/05/27 20:11:55;;;;;;;8.40;2.00;;;;;;;13.94;44.79;101307.05;218577;1287;141513;-82
2023/05/27 20:16:56;;;;;;;4.80;1.60;;;;;;;13.86;44.85;101303.17;218979;1288;138401;-81
2023/05/27 20:21:56;;;;;;;5.00;1.80;;;;;;;13.78;46.14;101307.41;218653;1287;141863;-80
2023/05/27 20:26:57;;;;;;;8.10;1.90;;;;;;;13.70;46.77;101303.77;218957;1288;138989;-82
2023/05/27 20:31:57;;;;;;;6.80;2.30;;;;;;;13.64;47.37;101300.92;218636;1288;142729;-82
2023/05/27 20:36:58;;;;;;;6.70;2.70;;;;;;;13.56;48.49;101304.14;219277;1288;95810;-82
2023/05/27 20:41:58;;;;;;;5.60;1.90;;;;;;;13.48;48.80;101301.58;218475;1287;140163;-82
2023/05/27 20:47:01;;;;;;;5.40;2.10;;;;;;;13.36;49.08;101301.19;218910;1287;139343;-81
2023/05/27 20:52:01;;;;;;;7.50;2.10;;;;;;;13.24;49.72;101301.16;218614;1287;143966;-82
2023/05/27 20:57:02;;;;;;;10.00;2.40;;;;;;;13.14;50.46;101299.60;219189;1287;138415;-82
2023/05/27 21:02:12;;;;;;;5.20;1.70;;;;;;;13.02;50.59;101298.71;218629;1287;141795;-82
2023/05/27 21:07:12;;;;;;;5.00;2.60;;;;;;;12.85;50.68;101298.89;219170;1287;95637;-82
2023/05/27 21:12:12;;;;;;;7.30;2.40;;;;;;;12.69;50.86;101291.92;218632;1287;139458;-82
2023/05/27 21:17:13;;;;;;;9.10;2.30;;;;;;;12.62;51.77;101295.20;219190;1287;138251;-81
2023/05/27 21:22:13;;;;;;;6.30;2.20;;;;;;;12.54;51.54;101294.67;218654;1287;140131;-82
2023/05/27 21:27:14;;;;;;;6.70;2.30;;;;;;;12.47;51.48;101301.04;219214;1287;137023;-82
2023/05/27 21:32:16;;;;;;;5.90;2.30;;;;;;;12.41;51.73;101307.16;218742;1288;141957;-82
2023/05/27 21:37:17;;;;;;;8.90;2.60;;;;;;;12.34;51.76;101307.73;219192;1287;95647;-82
2023/05/27 21:42:20;;;;;;;8.50;2.70;;;;;;;12.25;53.18;101304.09;218598;1287;141560;-81
2023/05/27 21:47:21;;;;;;;7.00;2.50;;;;;;;12.15;54.68;101299.73;218966;1287;139056;-82
2023/05/27 21:52:25;;;;;;;8.80;3.20;;;;;;;12.05;55.07;101296.48;218433;1287;140171;-82
2023/05/27 21:57:25;;;;;;;9.30;3.00;;;;;;;11.97;54.12;101295.14;219012;1288;138852;-82
2023/05/27 22:02:28;;;;;;;9.10;3.50;;;;;;;11.89;54.71;101293.64;218676;1287;141116;-81
2023/05/27 22:07:28;;;;;;;8.60;4.00;;;;;;;11.81;56.01;101286.30;219178;1287;106883;-82
2023/05/27 22:12:29;;;;;;;7.90;4.00;;;;;;;11.71;56.08;101286.13;218414;1288;139451;-81
2023/05/27 22:17:29;;;;;;;12.90;5.10;;;;;;;11.61;56.98;101286.38;219166;1287;138229;-81
2023/05/27 22:22:30;;;;;;;10.70;5.50;;;;;;;11.51;57.41;101288.91;218648;1287;142482;-81
2023/05/27 22:27:31;;;;;;;11.60;5.90;;;;;;;11.42;58.00;101280.42;219196;1288;138496;-81
2023/05/27 22:32:32;;;;;;;12.10;5.60;;;;;;;11.34;57.96;101281.69;218467;1287;141794;-81
2023/05/27 22:37:32;;;;;;;10.60;4.80;;;;;;;11.26;59.10;101275.52;218903;1287;95645;-81
2023/05/27 22:42:32;;;;;;;8.20;4.10;;;;;;;11.19;59.60;101277.48;218518;1287;141033;-82
2023/05/27 22:47:35;;;;;;;10.70;3.80;;;;;;;11.11;59.23;101278.95;218930;1287;140315;-81